sensor_id;sensor_type;location;lat;lon;timestamp;P1;durP1;ratioP1;P2;durP2;ratioP2
15451;SDS011;7827;53.594;9.938;2023-05-10T00:01:54;8.13;;;4.38;;
15451;SDS011;7827;53.594;9.938;2023-05-10T00:04:22;5.60;;;4.00;;
15451;SDS011;7827;53.594;9.938;2023-05-10T00:06:53;6.63;;;4.22;;
15451;SDS011;7827;53.594;9.938;2023-05-10T00:09:22;5.63;;;4.35;;
15451;SDS011;7827;53.594;9.938;2023-05-10T00:11:50;5.93;;;4.13;;
15451;SDS011;7827;53.594;9.938;2023-05-10T00:14:18;7.15;;;4.55;;
15451;SDS011;7827;53.594;9.938;2023-05-10T00:16:46;13.13;;;4.80;;
15451;SDS011;7827;53.594;9.938;2023-05-10T00:19:16;5.93;;;4.45;;
15451;SDS011;7827;53.594;9.938;2023-05-10T00:21:45;9.27;;;4.82;;
15451;SDS011;7827;53.594;9.938;2023-05-10T00:24:13;6.72;;;4.45;;
15451;SDS011;7827;53.594;9.938;2023-05-10T00:26:41;7.75;;;4.68;;
15451;SDS011;7827;53.594;9.938;2023-05-10T00:29:10;10.05;;;4.43;;
15451;SDS011;7827;53.594;9.938;2023-05-10T00:31:38;5.70;;;4.57;;
15451;SDS011;7827;53.594;9.938;2023-05-10T00:34:06;6.72;;;4.22;;
15451;SDS011;7827;53.594;9.938;2023-05-10T00:36:36;7.97;;;4.78;;
15451;SDS011;7827;53.594;9.938;2023-05-10T00:39:06;6.15;;;4.70;;
15451;SDS011;7827;53.594;9.938;2023-05-10T00:41:34;6.72;;;4.55;;
15451;SDS011;7827;53.594;9.938;2023-05-10T00:44:04;6.32;;;4.28;;
15451;SDS011;7827;53.594;9.938;2023-05-10T00:46:32;11.20;;;5.43;;
15451;SDS011;7827;53.594;9.938;2023-05-10T00:49:02;11.27;;;4.95;;
15451;SDS011;7827;53.594;9.938;2023-05-10T00:51:31;7.90;;;5.22;;
15451;SDS011;7827;53.594;9.938;2023-05-10T00:54:01;6.72;;;4.93;;
15451;SDS011;7827;53.594;9.938;2023-05-10T00:56:31;9.00;;;4.90;;
15451;SDS011;7827;53.594;9.938;2023-05-10T00:59:00;7.60;;;4.57;;
15451;SDS011;7827;53.594;9.938;2023-05-10T01:01:28;9.02;;;5.10;;
15451;SDS011;7827;53.594;9.938;2023-05-10T01:03:58;10.88;;;5.18;;
15451;SDS011;7827;53.594;9.938;2023-05-10T01:06:27;8.07;;;4.70;;
15451;SDS011;7827;53.594;9.938;2023-05-10T01:08:55;5.93;;;4.78;;
15451;SDS011;7827;53.594;9.938;2023-05-10T01:11:25;7.40;;;4.90;;
15451;SDS011;7827;53.594;9.938;2023-05-10T01:13:55;7.72;;;4.88;;
15451;SDS011;7827;53.594;9.938;2023-05-10T01:16:24;7.38;;;5.22;;
15451;SDS011;7827;53.594;9.938;2023-05-10T01:18:54;6.82;;;5.05;;
15451;SDS011;7827;53.594;9.938;2023-05-10T01:21:23;8.13;;;4.70;;
15451;SDS011;7827;53.594;9.938;2023-05-10T01:24:09;8.82;;;4.90;;
15451;SDS011;7827;53.594;9.938;2023-05-10T01:27:19;7.50;;;5.07;;
15451;SDS011;7827;53.594;9.938;2023-05-10T01:33:43;10.18;;;4.97;;
15451;SDS011;7827;53.594;9.938;2023-05-10T01:36:21;6.22;;;4.85;;
15451;SDS011;7827;53.594;9.938;2023-05-10T01:39:04;5.88;;;4.88;;
15451;SDS011;7827;53.594;9.938;2023-05-10T01:41:40;9.63;;;5.60;;
15451;SDS011;7827;53.594;9.938;2023-05-10T01:44:16;5.30;;;4.80;;
15451;SDS011;7827;53.594;9.938;2023-05-10T01:46:57;7.47;;;5.85;;
15451;SDS011;7827;53.594;9.938;2023-05-10T01:49:36;7.07;;;5.20;;
15451;SDS011;7827;53.594;9.938;2023-05-10T01:52:10;8.15;;;5.40;;
15451;SDS011;7827;53.594;9.938;2023-05-10T01:54:44;7.30;;;5.18;;
15451;SDS011;7827;53.594;9.938;2023-05-10T01:57:21;6.32;;;4.70;;
15451;SDS011;7827;53.594;9.938;2023-05-10T01:59:55;6.30;;;4.82;;
15451;SDS011;7827;53.594;9.938;2023-05-10T02:02:27;8.07;;;5.50;;
15451;SDS011;7827;53.594;9.938;2023-05-10T02:05:00;13.15;;;5.55;;
15451;SDS011;7827;53.594;9.938;2023-05-10T02:07:33;7.22;;;4.82;;
15451;SDS011;7827;53.594;9.938;2023-05-10T02:10:04;8.85;;;4.90;;
15451;SDS011;7827;53.594;9.938;2023-05-10T02:12:35;7.90;;;5.03;;
15451;SDS011;7827;53.594;9.938;2023-05-10T02:15:08;7.85;;;4.88;;
15451;SDS011;7827;53.594;9.938;2023-05-10T02:17:40;5.10;;;4.50;;
15451;SDS011;7827;53.594;9.938;2023-05-10T02:20:12;8.57;;;5.20;;
15451;SDS011;7827;53.594;9.938;2023-05-10T02:22:43;5.38;;;4.65;;
15451;SDS011;7827;53.594;9.938;2023-05-10T02:25:17;7.95;;;5.03;;
15451;SDS011;7827;53.594;9.938;2023-05-10T02:27:48;11.88;;;5.80;;
15451;SDS011;7827;53.594;9.938;2023-05-10T02:30:18;9.50;;;5.40;;
15451;SDS011;7827;53.594;9.938;2023-05-10T02:32:49;9.85;;;5.43;;
15451;SDS011;7827;53.594;9.938;2023-05-10T02:35:20;6.45;;;5.30;;
15451;SDS011;7827;53.594;9.938;2023-05-10T02:37:50;8.75;;;4.93;;
15451;SDS011;7827;53.594;9.938;2023-05-10T02:40:20;8.35;;;5.20;;
15451;SDS011;7827;53.594;9.938;2023-05-10T02:42:55;5.70;;;5.05;;
15451;SDS011;7827;53.594;9.938;2023-05-10T02:45:27;6.75;;;5.00;;
15451;SDS011;7827;53.594;9.938;2023-05-10T02:47:59;6.20;;;5.35;;
15451;SDS011;7827;53.594;9.938;2023-05-10T02:50:29;6.72;;;5.07;;
15451;SDS011;7827;53.594;9.938;2023-05-10T02:53:01;6.55;;;4.93;;
15451;SDS011;7827;53.594;9.938;2023-05-10T02:55:38;5.63;;;5.05;;
15451;SDS011;7827;53.594;9.938;2023-05-10T02:58:09;7.35;;;5.15;;
15451;SDS011;7827;53.594;9.938;2023-05-10T03:00:38;6.85;;;5.38;;
15451;SDS011;7827;53.594;9.938;2023-05-10T03:03:07;7.82;;;5.30;;
15451;SDS011;7827;53.594;9.938;2023-05-10T03:05:37;10.13;;;5.45;;
15451;SDS011;7827;53.594;9.938;2023-05-10T03:08:05;8.57;;;5.43;;
15451;SDS011;7827;53.594;9.938;2023-05-10T03:10:36;7.70;;;5.40;;
15451;SDS011;7827;53.594;9.938;2023-05-10T03:13:20;5.85;;;5.35;;
15451;SDS011;7827;53.594;9.938;2023-05-10T03:16:04;12.10;;;6.07;;
15451;SDS011;7827;53.594;9.938;2023-05-10T03:18:40;9.45;;;5.30;;
15451;SDS011;7827;53.594;9.938;2023-05-10T03:21:13;9.32;;;5.22;;
15451;SDS011;7827;53.594;9.938;2023-05-10T03:23:50;7.38;;;5.63;;
15451;SDS011;7827;53.594;9.938;2023-05-10T03:26:26;7.47;;;5.35;;
15451;SDS011;7827;53.594;9.938;2023-05-10T03:29:06;8.15;;;5.68;;
15451;SDS011;7827;53.594;9.938;2023-05-10T03:31:36;8.02;;;5.40;;
15451;SDS011;7827;53.594;9.938;2023-05-10T03:34:05;8.93;;;5.18;;
15451;SDS011;7827;53.594;9.938;2023-05-10T03:36:36;9.02;;;4.95;;
15451;SDS011;7827;53.594;9.938;2023-05-10T03:39:04;6.15;;;5.55;;
15451;SDS011;7827;53.594;9.938;2023-05-10T03:41:33;10.63;;;5.47;;
15451;SDS011;7827;53.594;9.938;2023-05-10T03:44:01;6.40;;;5.70;;
15451;SDS011;7827;53.594;9.938;2023-05-10T03:46:29;7.32;;;5.40;;
15451;SDS011;7827;53.594;9.938;2023-05-10T03:48:57;6.50;;;5.35;;
15451;SDS011;7827;53.594;9.938;2023-05-10T03:51:26;8.02;;;5.43;;
15451;SDS011;7827;53.594;9.938;2023-05-10T03:53:56;7.60;;;5.25;;
15451;SDS011;7827;53.594;9.938;2023-05-10T03:56:24;11.20;;;6.38;;
15451;SDS011;7827;53.594;9.938;2023-05-10T03:58:53;9.50;;;5.85;;
15451;SDS011;7827;53.594;9.938;2023-05-10T04:01:21;7.97;;;5.57;;
15451;SDS011;7827;53.594;9.938;2023-05-10T04:03:49;6.38;;;5.00;;
15451;SDS011;7827;53.594;9.938;2023-05-10T04:06:18;6.40;;;5.43;;
15451;SDS011;7827;53.594;9.938;2023-05-10T04:08:46;7.90;;;5.72;;
15451;SDS011;7827;53.594;9.938;2023-05-10T04:11:16;9.50;;;5.45;;
15451;SDS011;7827;53.594;9.938;2023-05-10T04:13:44;10.25;;;5.35;;
15451;SDS011;7827;53.594;9.938;2023-05-10T04:16:12;7.03;;;5.93;;
15451;SDS011;7827;53.594;9.938;2023-05-10T04:18:40;7.72;;;5.55;;
15451;SDS011;7827;53.594;9.938;2023-05-10T04:21:12;9.52;;;5.68;;
15451;SDS011;7827;53.594;9.938;2023-05-10T04:23:40;11.45;;;6.38;;
15451;SDS011;7827;53.594;9.938;2023-05-10T04:26:09;10.77;;;5.43;;
15451;SDS011;7827;53.594;9.938;2023-05-10T04:28:38;8.80;;;5.43;;
15451;SDS011;7827;53.594;9.938;2023-05-10T04:31:07;7.75;;;6.05;;
15451;SDS011;7827;53.594;9.938;2023-05-10T04:33:38;9.07;;;5.65;;
15451;SDS011;7827;53.594;9.938;2023-05-10T04:36:06;8.43;;;5.43;;
15451;SDS011;7827;53.594;9.938;2023-05-10T04:38:35;7.82;;;5.75;;
15451;SDS011;7827;53.594;9.938;2023-05-10T04:41:04;7.57;;;5.68;;
15451;SDS011;7827;53.594;9.938;2023-05-10T04:43:33;6.93;;;5.75;;
15451;SDS011;7827;53.594;9.938;2023-05-10T04:46:04;10.73;;;5.35;;
15451;SDS011;7827;53.594;9.938;2023-05-10T04:48:33;8.30;;;5.32;;
15451;SDS011;7827;53.594;9.938;2023-05-10T04:51:01;11.10;;;5.82;;
15451;SDS011;7827;53.594;9.938;2023-05-10T04:53:31;9.75;;;5.50;;
15451;SDS011;7827;53.594;9.938;2023-05-10T04:55:59;6.82;;;5.53;;
15451;SDS011;7827;53.594;9.938;2023-05-10T04:58:28;6.07;;;5.47;;
15451;SDS011;7827;53.594;9.938;2023-05-10T05:00:56;9.25;;;5.50;;
15451;SDS011;7827;53.594;9.938;2023-05-10T05:03:26;10.02;;;5.28;;
15451;SDS011;7827;53.594;9.938;2023-05-10T05:05:54;7.28;;;5.72;;
15451;SDS011;7827;53.594;9.938;2023-05-10T05:08:22;9.15;;;6.25;;
15451;SDS011;7827;53.594;9.938;2023-05-10T05:10:51;9.85;;;5.57;;
15451;SDS011;7827;53.594;9.938;2023-05-10T05:13:19;8.45;;;5.75;;
15451;SDS011;7827;53.594;9.938;2023-05-10T05:15:47;6.75;;;5.82;;
15451;SDS011;7827;53.594;9.938;2023-05-10T05:18:16;12.07;;;5.30;;
15451;SDS011;7827;53.594;9.938;2023-05-10T05:20:45;6.18;;;5.40;;
15451;SDS011;7827;53.594;9.938;2023-05-10T05:23:14;7.25;;;5.63;;
15451;SDS011;7827;53.594;9.938;2023-05-10T05:25:43;10.25;;;5.97;;
15451;SDS011;7827;53.594;9.938;2023-05-10T05:28:11;11.27;;;6.28;;
15451;SDS011;7827;53.594;9.938;2023-05-10T05:30:40;8.20;;;5.72;;
15451;SDS011;7827;53.594;9.938;2023-05-10T05:33:08;10.73;;;5.82;;
15451;SDS011;7827;53.594;9.938;2023-05-10T05:35:37;7.20;;;5.55;;
15451;SDS011;7827;53.594;9.938;2023-05-10T05:38:06;9.05;;;5.88;;
15451;SDS011;7827;53.594;9.938;2023-05-10T05:40:35;8.52;;;5.35;;
15451;SDS011;7827;53.594;9.938;2023-05-10T05:43:03;8.00;;;5.88;;
15451;SDS011;7827;53.594;9.938;2023-05-10T05:45:31;12.52;;;5.70;;
15451;SDS011;7827;53.594;9.938;2023-05-10T05:47:59;8.75;;;5.35;;
15451;SDS011;7827;53.594;9.938;2023-05-10T05:50:28;9.18;;;5.57;;
15451;SDS011;7827;53.594;9.938;2023-05-10T05:52:56;10.18;;;6.05;;
15451;SDS011;7827;53.594;9.938;2023-05-10T05:55:26;13.13;;;5.88;;
15451;SDS011;7827;53.594;9.938;2023-05-10T05:57:55;7.47;;;6.10;;
15451;SDS011;7827;53.594;9.938;2023-05-10T06:00:24;6.90;;;5.60;;
15451;SDS011;7827;53.594;9.938;2023-05-10T06:02:52;6.82;;;5.45;;
15451;SDS011;7827;53.594;9.938;2023-05-10T06:05:21;7.95;;;5.53;;
15451;SDS011;7827;53.594;9.938;2023-05-10T06:07:57;9.48;;;5.43;;
15451;SDS011;7827;53.594;9.938;2023-05-10T06:10:28;12.20;;;5.72;;
15451;SDS011;7827;53.594;9.938;2023-05-10T06:12:57;8.55;;;5.97;;
15451;SDS011;7827;53.594;9.938;2023-05-10T06:15:25;8.73;;;5.97;;
15451;SDS011;7827;53.594;9.938;2023-05-10T06:17:54;7.93;;;6.05;;
15451;SDS011;7827;53.594;9.938;2023-05-10T06:20:22;12.73;;;5.95;;
15451;SDS011;7827;53.594;9.938;2023-05-10T06:22:51;8.77;;;5.57;;
15451;SDS011;7827;53.594;9.938;2023-05-10T06:25:19;9.68;;;5.68;;
15451;SDS011;7827;53.594;9.938;2023-05-10T06:27:49;6.53;;;5.40;;
15451;SDS011;7827;53.594;9.938;2023-05-10T06:30:21;8.50;;;5.82;;
15451;SDS011;7827;53.594;9.938;2023-05-10T06:32:53;13.13;;;6.07;;
15451;SDS011;7827;53.594;9.938;2023-05-10T06:35:22;10.20;;;5.55;;
15451;SDS011;7827;53.594;9.938;2023-05-10T06:37:51;10.70;;;6.32;;
15451;SDS011;7827;53.594;9.938;2023-05-10T06:40:19;7.18;;;5.75;;
15451;SDS011;7827;53.594;9.938;2023-05-10T06:42:49;8.65;;;5.75;;
15451;SDS011;7827;53.594;9.938;2023-05-10T06:45:17;8.02;;;5.22;;
15451;SDS011;7827;53.594;9.938;2023-05-10T06:47:46;8.55;;;5.45;;
15451;SDS011;7827;53.594;9.938;2023-05-10T06:50:14;11.73;;;5.68;;
15451;SDS011;7827;53.594;9.938;2023-05-10T06:52:42;9.95;;;6.00;;
15451;SDS011;7827;53.594;9.938;2023-05-10T06:55:11;12.60;;;5.70;;
15451;SDS011;7827;53.594;9.938;2023-05-10T06:57:39;7.13;;;5.80;;
15451;SDS011;7827;53.594;9.938;2023-05-10T07:00:09;9.88;;;6.03;;
15451;SDS011;7827;53.594;9.938;2023-05-10T07:02:39;10.70;;;5.95;;
15451;SDS011;7827;53.594;9.938;2023-05-10T07:05:08;9.52;;;5.75;;
15451;SDS011;7827;53.594;9.938;2023-05-10T07:07:36;7.75;;;5.22;;
15451;SDS011;7827;53.594;9.938;2023-05-10T07:10:05;6.93;;;5.78;;
15451;SDS011;7827;53.594;9.938;2023-05-10T07:12:34;6.63;;;6.00;;
15451;SDS011;7827;53.594;9.938;2023-05-10T07:15:03;9.98;;;5.82;;
15451;SDS011;7827;53.594;9.938;2023-05-10T07:17:33;11.45;;;7.07;;
15451;SDS011;7827;53.594;9.938;2023-05-10T07:20:02;8.40;;;5.68;;
15451;SDS011;7827;53.594;9.938;2023-05-10T07:22:31;10.25;;;5.82;;
15451;SDS011;7827;53.594;9.938;2023-05-10T07:24:59;12.18;;;5.93;;
15451;SDS011;7827;53.594;9.938;2023-05-10T07:27:28;7.95;;;6.22;;
15451;SDS011;7827;53.594;9.938;2023-05-10T07:29:57;9.23;;;5.90;;
15451;SDS011;7827;53.594;9.938;2023-05-10T07:32:27;6.60;;;5.65;;
15451;SDS011;7827;53.594;9.938;2023-05-10T07:34:57;7.03;;;6.07;;
15451;SDS011;7827;53.594;9.938;2023-05-10T07:37:25;7.55;;;5.93;;
15451;SDS011;7827;53.594;9.938;2023-05-10T07:39:53;6.95;;;5.93;;
15451;SDS011;7827;53.594;9.938;2023-05-10T07:42:22;10.38;;;6.47;;
15451;SDS011;7827;53.594;9.938;2023-05-10T07:44:50;8.48;;;5.78;;
15451;SDS011;7827;53.594;9.938;2023-05-10T07:47:19;10.77;;;5.80;;
15451;SDS011;7827;53.594;9.938;2023-05-10T07:49:47;11.55;;;6.40;;
15451;SDS011;7827;53.594;9.938;2023-05-10T07:52:17;12.43;;;6.28;;
15451;SDS011;7827;53.594;9.938;2023-05-10T07:54:48;11.68;;;6.03;;
15451;SDS011;7827;53.594;9.938;2023-05-10T07:57:17;7.22;;;5.80;;
15451;SDS011;7827;53.594;9.938;2023-05-10T07:59:46;8.43;;;6.07;;
15451;SDS011;7827;53.594;9.938;2023-05-10T08:02:14;7.28;;;5.45;;
15451;SDS011;7827;53.594;9.938;2023-05-10T08:04:42;8.95;;;5.30;;
15451;SDS011;7827;53.594;9.938;2023-05-10T08:07:11;12.23;;;6.32;;
15451;SDS011;7827;53.594;9.938;2023-05-10T08:09:41;13.00;;;5.97;;
15451;SDS011;7827;53.594;9.938;2023-05-10T08:12:09;17.92;;;6.10;;
15451;SDS011;7827;53.594;9.938;2023-05-10T08:14:38;11.27;;;6.10;;
15451;SDS011;7827;53.594;9.938;2023-05-10T08:17:06;8.57;;;5.60;;
15451;SDS011;7827;53.594;9.938;2023-05-10T08:19:34;9.38;;;5.88;;
15451;SDS011;7827;53.594;9.938;2023-05-10T08:22:02;13.20;;;5.75;;
15451;SDS011;7827;53.594;9.938;2023-05-10T08:24:31;12.63;;;6.30;;
15451;SDS011;7827;53.594;9.938;2023-05-10T08:27:02;7.10;;;5.28;;
15451;SDS011;7827;53.594;9.938;2023-05-10T08:29:30;9.02;;;5.68;;
15451;SDS011;7827;53.594;9.938;2023-05-10T08:32:14;10.15;;;5.50;;
15451;SDS011;7827;53.594;9.938;2023-05-10T08:34:42;7.22;;;5.85;;
15451;SDS011;7827;53.594;9.938;2023-05-10T08:37:11;9.95;;;5.40;;
15451;SDS011;7827;53.594;9.938;2023-05-10T08:39:40;10.35;;;5.00;;
15451;SDS011;7827;53.594;9.938;2023-05-10T08:42:09;7.63;;;5.90;;
15451;SDS011;7827;53.594;9.938;2023-05-10T08:44:40;9.68;;;6.03;;
15451;SDS011;7827;53.594;9.938;2023-05-10T08:47:09;7.30;;;5.90;;
15451;SDS011;7827;53.594;9.938;2023-05-10T08:49:39;6.70;;;5.63;;
15451;SDS011;7827;53.594;9.938;2023-05-10T08:52:09;10.85;;;6.00;;
15451;SDS011;7827;53.594;9.938;2023-05-10T08:54:40;8.55;;;6.10;;
15451;SDS011;7827;53.594;9.938;2023-05-10T08:57:11;9.55;;;6.20;;
15451;SDS011;7827;53.594;9.938;2023-05-10T08:59:39;8.60;;;5.78;;
15451;SDS011;7827;53.594;9.938;2023-05-10T09:02:08;8.25;;;6.35;;
15451;SDS011;7827;53.594;9.938;2023-05-10T09:04:44;12.02;;;6.05;;
15451;SDS011;7827;53.594;9.938;2023-05-10T09:07:13;13.57;;;6.30;;
15451;SDS011;7827;53.594;9.938;2023-05-10T09:09:42;9.65;;;5.93;;
15451;SDS011;7827;53.594;9.938;2023-05-10T09:12:12;12.98;;;6.13;;
15451;SDS011;7827;53.594;9.938;2023-05-10T09:14:42;8.25;;;6.40;;
15451;SDS011;7827;53.594;9.938;2023-05-10T09:17:12;31.60;;;10.05;;
15451;SDS011;7827;53.594;9.938;2023-05-10T09:19:41;25.50;;;8.73;;
15451;SDS011;7827;53.594;9.938;2023-05-10T09:22:09;19.80;;;7.45;;
15451;SDS011;7827;53.594;9.938;2023-05-10T09:24:38;8.52;;;6.18;;
15451;SDS011;7827;53.594;9.938;2023-05-10T09:27:12;16.20;;;6.50;;
15451;SDS011;7827;53.594;9.938;2023-05-10T09:29:41;10.18;;;7.47;;
15451;SDS011;7827;53.594;9.938;2023-05-10T09:32:10;10.85;;;6.75;;
15451;SDS011;7827;53.594;9.938;2023-05-10T09:34:39;14.18;;;6.78;;
15451;SDS011;7827;53.594;9.938;2023-05-10T09:37:08;10.57;;;6.93;;
15451;SDS011;7827;53.594;9.938;2023-05-10T09:39:37;9.30;;;7.03;;
15451;SDS011;7827;53.594;9.938;2023-05-10T09:42:08;9.35;;;7.25;;
15451;SDS011;7827;53.594;9.938;2023-05-10T09:44:38;12.00;;;7.25;;
15451;SDS011;7827;53.594;9.938;2023-05-10T09:47:08;18.42;;;7.95;;
15451;SDS011;7827;53.594;9.938;2023-05-10T09:49:37;10.80;;;7.43;;
15451;SDS011;7827;53.594;9.938;2023-05-10T09:52:05;9.75;;;7.90;;
15451;SDS011;7827;53.594;9.938;2023-05-10T09:54:34;16.80;;;7.22;;
15451;SDS011;7827;53.594;9.938;2023-05-10T09:57:03;12.85;;;7.63;;
15451;SDS011;7827;53.594;9.938;2023-05-10T09:59:32;9.80;;;7.75;;
15451;SDS011;7827;53.594;9.938;2023-05-10T10:02:03;9.73;;;8.52;;
15451;SDS011;7827;53.594;9.938;2023-05-10T10:04:32;8.60;;;7.80;;
15451;SDS011;7827;53.594;9.938;2023-05-10T10:07:07;9.23;;;8.05;;
15451;SDS011;7827;53.594;9.938;2023-05-10T10:09:36;9.07;;;8.18;;
15451;SDS011;7827;53.594;9.938;2023-05-10T10:12:05;11.02;;;8.55;;
15451;SDS011;7827;53.594;9.938;2023-05-10T10:14:34;11.98;;;8.18;;
15451;SDS011;7827;53.594;9.938;2023-05-10T10:17:04;10.60;;;8.07;;
15451;SDS011;7827;53.594;9.938;2023-05-10T10:19:34;11.85;;;8.95;;
15451;SDS011;7827;53.594;9.938;2023-05-10T10:22:04;12.75;;;9.07;;
15451;SDS011;7827;53.594;9.938;2023-05-10T10:24:32;10.15;;;8.60;;
15451;SDS011;7827;53.594;9.938;2023-05-10T10:27:03;10.55;;;9.45;;
15451;SDS011;7827;53.594;9.938;2023-05-10T10:29:49;11.15;;;9.57;;
15451;SDS011;7827;53.594;9.938;2023-05-10T10:32:35;13.23;;;9.27;;
15451;SDS011;7827;53.594;9.938;2023-05-10T10:35:35;10.65;;;9.55;;
15451;SDS011;7827;53.594;9.938;2023-05-10T10:38:07;12.93;;;9.50;;
15451;SDS011;7827;53.594;9.938;2023-05-10T10:40:36;12.50;;;10.30;;
15451;SDS011;7827;53.594;9.938;2023-05-10T10:43:21;13.98;;;10.20;;
15451;SDS011;7827;53.594;9.938;2023-05-10T10:46:10;16.60;;;10.02;;
15451;SDS011;7827;53.594;9.938;2023-05-10T10:48:43;11.95;;;10.48;;
15451;SDS011;7827;53.594;9.938;2023-05-10T10:51:17;12.50;;;9.85;;
15451;SDS011;7827;53.594;9.938;2023-05-10T10:53:46;15.00;;;10.18;;
15451;SDS011;7827;53.594;9.938;2023-05-10T10:56:15;13.05;;;10.82;;
15451;SDS011;7827;53.594;9.938;2023-05-10T10:58:51;13.07;;;11.00;;
15451;SDS011;7827;53.594;9.938;2023-05-10T11:01:20;13.88;;;10.98;;
15451;SDS011;7827;53.594;9.938;2023-05-10T11:06:46;14.57;;;11.00;;
15451;SDS011;7827;53.594;9.938;2023-05-10T11:09:15;13.20;;;11.43;;
15451;SDS011;7827;53.594;9.938;2023-05-10T11:11:50;14.85;;;11.40;;
15451;SDS011;7827;53.594;9.938;2023-05-10T11:14:21;14.85;;;11.40;;
15451;SDS011;7827;53.594;9.938;2023-05-10T11:16:50;13.38;;;11.38;;
15451;SDS011;7827;53.594;9.938;2023-05-10T11:19:20;16.98;;;11.45;;
15451;SDS011;7827;53.594;9.938;2023-05-10T11:21:49;15.52;;;11.10;;
15451;SDS011;7827;53.594;9.938;2023-05-10T11:24:20;11.77;;;10.55;;
15451;SDS011;7827;53.594;9.938;2023-05-10T11:26:54;14.65;;;11.80;;
15451;SDS011;7827;53.594;9.938;2023-05-10T11:29:22;14.50;;;11.63;;
15451;SDS011;7827;53.594;9.938;2023-05-10T11:31:52;13.63;;;10.95;;
15451;SDS011;7827;53.594;9.938;2023-05-10T11:34:26;12.73;;;11.20;;
15451;SDS011;7827;53.594;9.938;2023-05-10T11:36:57;14.30;;;11.07;;
15451;SDS011;7827;53.594;9.938;2023-05-10T11:39:26;12.63;;;11.32;;
15451;SDS011;7827;53.594;9.938;2023-05-10T11:41:55;12.82;;;11.50;;
15451;SDS011;7827;53.594;9.938;2023-05-10T11:44:24;14.98;;;12.23;;
15451;SDS011;7827;53.594;9.938;2023-05-10T11:46:58;14.73;;;12.20;;
15451;SDS011;7827;53.594;9.938;2023-05-10T11:49:28;14.70;;;12.80;;
15451;SDS011;7827;53.594;9.938;2023-05-10T11:52:03;15.02;;;12.80;;
15451;SDS011;7827;53.594;9.938;2023-05-10T11:54:32;16.02;;;13.27;;
15451;SDS011;7827;53.594;9.938;2023-05-10T11:57:02;16.30;;;12.55;;
15451;SDS011;7827;53.594;9.938;2023-05-10T11:59:31;13.88;;;12.30;;
15451;SDS011;7827;53.594;9.938;2023-05-10T12:01:59;14.10;;;11.45;;
15451;SDS011;7827;53.594;9.938;2023-05-10T12:04:29;12.52;;;10.80;;
15451;SDS011;7827;53.594;9.938;2023-05-10T12:06:58;12.43;;;11.20;;
15451;SDS011;7827;53.594;9.938;2023-05-10T12:09:27;12.20;;;10.93;;
15451;SDS011;7827;53.594;9.938;2023-05-10T12:12:09;12.82;;;10.10;;
15451;SDS011;7827;53.594;9.938;2023-05-10T12:14:38;12.35;;;11.00;;
15451;SDS011;7827;53.594;9.938;2023-05-10T12:17:06;12.15;;;10.85;;
15451;SDS011;7827;53.594;9.938;2023-05-10T12:19:40;11.40;;;10.20;;
15451;SDS011;7827;53.594;9.938;2023-05-10T12:22:10;12.88;;;10.43;;
15451;SDS011;7827;53.594;9.938;2023-05-10T12:24:38;10.65;;;9.52;;
15451;SDS011;7827;53.594;9.938;2023-05-10T12:27:07;11.30;;;9.48;;
15451;SDS011;7827;53.594;9.938;2023-05-10T12:29:36;13.15;;;8.40;;
15451;SDS011;7827;53.594;9.938;2023-05-10T12:32:10;8.93;;;7.40;;
15451;SDS011;7827;53.594;9.938;2023-05-10T12:34:38;9.23;;;8.30;;
15451;SDS011;7827;53.594;9.938;2023-05-10T12:37:08;13.80;;;9.82;;
15451;SDS011;7827;53.594;9.938;2023-05-10T12:39:39;14.43;;;10.88;;
15451;SDS011;7827;53.594;9.938;2023-05-10T12:42:09;11.70;;;9.02;;
15451;SDS011;7827;53.594;9.938;2023-05-10T12:44:37;12.15;;;10.02;;
15451;SDS011;7827;53.594;9.938;2023-05-10T12:47:06;13.68;;;10.85;;
15451;SDS011;7827;53.594;9.938;2023-05-10T12:49:35;11.90;;;10.32;;
15451;SDS011;7827;53.594;9.938;2023-05-10T12:52:03;12.48;;;9.85;;
15451;SDS011;7827;53.594;9.938;2023-05-10T12:54:33;11.07;;;9.90;;
15451;SDS011;7827;53.594;9.938;2023-05-10T12:57:01;13.07;;;10.30;;
15451;SDS011;7827;53.594;9.938;2023-05-10T12:59:30;11.48;;;9.60;;
15451;SDS011;7827;53.594;9.938;2023-05-10T13:02:01;9.93;;;8.90;;
15451;SDS011;7827;53.594;9.938;2023-05-10T13:04:29;9.18;;;8.27;;
15451;SDS011;7827;53.594;9.938;2023-05-10T13:06:58;11.95;;;8.60;;
15451;SDS011;7827;53.594;9.938;2023-05-10T13:09:26;9.35;;;8.07;;
15451;SDS011;7827;53.594;9.938;2023-05-10T13:11:57;12.10;;;10.90;;
15451;SDS011;7827;53.594;9.938;2023-05-10T13:14:25;12.35;;;11.10;;
15451;SDS011;7827;53.594;9.938;2023-05-10T13:16:54;13.43;;;12.02;;
15451;SDS011;7827;53.594;9.938;2023-05-10T13:19:22;11.80;;;10.65;;
15451;SDS011;7827;53.594;9.938;2023-05-10T13:21:51;11.88;;;10.57;;
15451;SDS011;7827;53.594;9.938;2023-05-10T13:24:19;13.55;;;10.48;;
15451;SDS011;7827;53.594;9.938;2023-05-10T13:26:49;15.13;;;10.25;;
15451;SDS011;7827;53.594;9.938;2023-05-10T13:29:19;10.45;;;9.35;;
15451;SDS011;7827;53.594;9.938;2023-05-10T13:31:48;9.90;;;8.90;;
15451;SDS011;7827;53.594;9.938;2023-05-10T13:34:19;10.82;;;8.60;;
15451;SDS011;7827;53.594;9.938;2023-05-10T13:36:47;10.80;;;9.70;;
15451;SDS011;7827;53.594;9.938;2023-05-10T13:39:16;13.73;;;10.65;;
15451;SDS011;7827;53.594;9.938;2023-05-10T13:41:44;10.55;;;9.45;;
15451;SDS011;7827;53.594;9.938;2023-05-10T13:44:12;11.68;;;10.30;;
15451;SDS011;7827;53.594;9.938;2023-05-10T13:46:43;11.43;;;10.20;;
15451;SDS011;7827;53.594;9.938;2023-05-10T13:49:11;11.32;;;10.00;;
15451;SDS011;7827;53.594;9.938;2023-05-10T13:51:39;10.63;;;9.40;;
15451;SDS011;7827;53.594;9.938;2023-05-10T13:54:08;14.60;;;9.85;;
15451;SDS011;7827;53.594;9.938;2023-05-10T13:56:39;12.13;;;9.88;;
15451;SDS011;7827;53.594;9.938;2023-05-10T13:59:08;11.18;;;10.13;;
15451;SDS011;7827;53.594;9.938;2023-05-10T14:01:37;10.77;;;9.60;;
15451;SDS011;7827;53.594;9.938;2023-05-10T14:04:06;11.98;;;10.75;;
15451;SDS011;7827;53.594;9.938;2023-05-10T14:06:36;11.50;;;10.40;;
15451;SDS011;7827;53.594;9.938;2023-05-10T14:09:05;11.70;;;10.50;;
15451;SDS011;7827;53.594;9.938;2023-05-10T14:11:33;11.90;;;10.45;;
15451;SDS011;7827;53.594;9.938;2023-05-10T14:14:01;12.02;;;10.82;;
15451;SDS011;7827;53.594;9.938;2023-05-10T14:16:29;12.73;;;10.75;;
15451;SDS011;7827;53.594;9.938;2023-05-10T14:18:58;11.65;;;10.45;;
15451;SDS011;7827;53.594;9.938;2023-05-10T14:21:28;11.27;;;10.07;;
15451;SDS011;7827;53.594;9.938;2023-05-10T14:23:57;10.80;;;9.70;;
15451;SDS011;7827;53.594;9.938;2023-05-10T14:26:25;11.70;;;9.52;;
15451;SDS011;7827;53.594;9.938;2023-05-10T14:28:54;12.20;;;10.25;;
15451;SDS011;7827;53.594;9.938;2023-05-10T14:31:22;10.15;;;9.07;;
15451;SDS011;7827;53.594;9.938;2023-05-10T14:33:52;11.32;;;10.00;;
15451;SDS011;7827;53.594;9.938;2023-05-10T14:36:20;11.30;;;10.07;;
15451;SDS011;7827;53.594;9.938;2023-05-10T14:38:50;10.35;;;8.98;;
15451;SDS011;7827;53.594;9.938;2023-05-10T14:41:18;11.05;;;10.00;;
15451;SDS011;7827;53.594;9.938;2023-05-10T14:43:46;10.52;;;9.43;;
15451;SDS011;7827;53.594;9.938;2023-05-10T14:46:15;9.23;;;8.30;;
15451;SDS011;7827;53.594;9.938;2023-05-10T14:48:43;9.30;;;8.40;;
15451;SDS011;7827;53.594;9.938;2023-05-10T14:51:12;9.80;;;8.75;;
15451;SDS011;7827;53.594;9.938;2023-05-10T14:53:40;10.55;;;8.65;;
15451;SDS011;7827;53.594;9.938;2023-05-10T14:56:09;8.80;;;8.00;;
15451;SDS011;7827;53.594;9.938;2023-05-10T14:58:38;9.82;;;8.60;;
15451;SDS011;7827;53.594;9.938;2023-05-10T15:01:06;9.80;;;8.80;;
15451;SDS011;7827;53.594;9.938;2023-05-10T15:03:35;8.98;;;8.07;;
15451;SDS011;7827;53.594;9.938;2023-05-10T15:06:04;9.23;;;8.32;;
15451;SDS011;7827;53.594;9.938;2023-05-10T15:08:33;9.40;;;8.50;;
15451;SDS011;7827;53.594;9.938;2023-05-10T15:11:01;9.10;;;8.30;;
15451;SDS011;7827;53.594;9.938;2023-05-10T15:13:31;9.85;;;8.85;;
15451;SDS011;7827;53.594;9.938;2023-05-10T15:15:59;10.50;;;9.40;;
15451;SDS011;7827;53.594;9.938;2023-05-10T15:18:28;9.40;;;8.35;;